sensor_id;sensor_type;location;lat;lon;timestamp;P1;durP1;ratioP1;P2;durP2;ratioP2
48205;SDS011;33995;48.202;16.260;2023-05-21T00:01:10;18.20;;;16.50;;
48205;SDS011;33995;48.202;16.260;2023-05-21T00:03:46;18.57;;;16.80;;
48205;SDS011;33995;48.202;16.260;2023-05-21T00:06:17;17.17;;;15.43;;
48205;SDS011;33995;48.202;16.260;2023-05-21T00:08:50;18.87;;;16.90;;
48205;SDS011;33995;48.202;16.260;2023-05-21T00:11:19;17.67;;;15.87;;
48205;SDS011;33995;48.202;16.260;2023-05-21T00:13:49;18.20;;;16.60;;
48205;SDS011;33995;48.202;16.260;2023-05-21T00:16:19;17.50;;;15.90;;
48205;SDS011;33995;48.202;16.260;2023-05-21T00:18:46;18.00;;;16.30;;
48205;SDS011;33995;48.202;16.260;2023-05-21T00:21:18;18.10;;;16.40;;
48205;SDS011;33995;48.202;16.260;2023-05-21T00:24:09;17.73;;;16.10;;
48205;SDS011;33995;48.202;16.260;2023-05-21T00:26:40;18.30;;;16.60;;
48205;SDS011;33995;48.202;16.260;2023-05-21T00:29:12;18.13;;;16.43;;
48205;SDS011;33995;48.202;16.260;2023-05-21T00:31:42;18.07;;;16.37;;
48205;SDS011;33995;48.202;16.260;2023-05-21T00:34:13;17.93;;;16.30;;
48205;SDS011;33995;48.202;16.260;2023-05-21T00:36:44;17.60;;;15.93;;
48205;SDS011;33995;48.202;16.260;2023-05-21T00:39:20;17.60;;;15.93;;
48205;SDS011;33995;48.202;16.260;2023-05-21T00:41:48;18.40;;;16.47;;
48205;SDS011;33995;48.202;16.260;2023-05-21T00:44:23;17.17;;;15.47;;
48205;SDS011;33995;48.202;16.260;2023-05-21T00:46:55;17.83;;;16.10;;
48205;SDS011;33995;48.202;16.260;2023-05-21T00:49:28;16.90;;;15.30;;
48205;SDS011;33995;48.202;16.260;2023-05-21T00:52:00;18.27;;;16.47;;
48205;SDS011;33995;48.202;16.260;2023-05-21T00:54:32;17.23;;;15.53;;
48205;SDS011;33995;48.202;16.260;2023-05-21T00:57:02;17.33;;;15.80;;
48205;SDS011;33995;48.202;16.260;2023-05-21T00:59:32;17.13;;;15.53;;
48205;SDS011;33995;48.202;16.260;2023-05-21T01:02:01;16.63;;;14.97;;
48205;SDS011;33995;48.202;16.260;2023-05-21T01:04:35;17.43;;;15.73;;
48205;SDS011;33995;48.202;16.260;2023-05-21T01:07:05;16.87;;;15.27;;
48205;SDS011;33995;48.202;16.260;2023-05-21T01:09:39;18.63;;;16.90;;
48205;SDS011;33995;48.202;16.260;2023-05-21T01:12:11;16.97;;;15.27;;
48205;SDS011;33995;48.202;16.260;2023-05-21T01:14:43;17.13;;;15.53;;
48205;SDS011;33995;48.202;16.260;2023-05-21T01:17:11;17.20;;;15.50;;
48205;SDS011;33995;48.202;16.260;2023-05-21T01:19:39;16.90;;;15.40;;
48205;SDS011;33995;48.202;16.260;2023-05-21T01:22:10;17.17;;;15.37;;
48205;SDS011;33995;48.202;16.260;2023-05-21T01:24:43;18.00;;;16.20;;
48205;SDS011;33995;48.202;16.260;2023-05-21T01:27:15;18.27;;;16.60;;
48205;SDS011;33995;48.202;16.260;2023-05-21T01:29:46;17.57;;;15.90;;
48205;SDS011;33995;48.202;16.260;2023-05-21T01:38:41;17.87;;;16.10;;
48205;SDS011;33995;48.202;16.260;2023-05-21T01:41:32;16.93;;;15.33;;
48205;SDS011;33995;48.202;16.260;2023-05-21T01:44:09;17.23;;;15.63;;
48205;SDS011;33995;48.202;16.260;2023-05-21T01:46:38;17.43;;;15.83;;
48205;SDS011;33995;48.202;16.260;2023-05-21T01:49:06;17.10;;;15.60;;
48205;SDS011;33995;48.202;16.260;2023-05-21T01:51:37;18.07;;;16.37;;
48205;SDS011;33995;48.202;16.260;2023-05-21T01:54:08;17.83;;;16.07;;
48205;SDS011;33995;48.202;16.260;2023-05-21T01:56:43;17.83;;;16.13;;
48205;SDS011;33995;48.202;16.260;2023-05-21T01:59:13;17.53;;;15.93;;
48205;SDS011;33995;48.202;16.260;2023-05-21T02:01:43;18.20;;;16.50;;
48205;SDS011;33995;48.202;16.260;2023-05-21T02:04:14;17.87;;;16.07;;
48205;SDS011;33995;48.202;16.260;2023-05-21T02:06:51;18.40;;;16.60;;
48205;SDS011;33995;48.202;16.260;2023-05-21T02:09:25;17.63;;;15.93;;
48205;SDS011;33995;48.202;16.260;2023-05-21T02:12:01;16.80;;;15.20;;
48205;SDS011;33995;48.202;16.260;2023-05-21T02:14:31;18.07;;;16.20;;
48205;SDS011;33995;48.202;16.260;2023-05-21T02:17:08;17.93;;;16.17;;
48205;SDS011;33995;48.202;16.260;2023-05-21T02:19:39;17.63;;;16.00;;
48205;SDS011;33995;48.202;16.260;2023-05-21T02:22:12;16.53;;;14.93;;
48205;SDS011;33995;48.202;16.260;2023-05-21T02:24:43;17.00;;;15.40;;
48205;SDS011;33995;48.202;16.260;2023-05-21T02:27:24;17.50;;;15.90;;
48205;SDS011;33995;48.202;16.260;2023-05-21T02:29:57;16.90;;;15.30;;
48205;SDS011;33995;48.202;16.260;2023-05-21T02:32:29;17.17;;;15.47;;
48205;SDS011;33995;48.202;16.260;2023-05-21T02:35:02;17.20;;;15.60;;
48205;SDS011;33995;48.202;16.260;2023-05-21T02:37:34;17.50;;;15.83;;
48205;SDS011;33995;48.202;16.260;2023-05-21T02:40:05;17.23;;;15.63;;
48205;SDS011;33995;48.202;16.260;2023-05-21T02:42:35;17.47;;;15.63;;
48205;SDS011;33995;48.202;16.260;2023-05-21T02:45:13;18.90;;;17.10;;
48205;SDS011;33995;48.202;16.260;2023-05-21T02:47:49;17.70;;;16.00;;
48205;SDS011;33995;48.202;16.260;2023-05-21T02:50:20;17.63;;;16.03;;
48205;SDS011;33995;48.202;16.260;2023-05-21T02:53:03;17.33;;;15.67;;
48205;SDS011;33995;48.202;16.260;2023-05-21T02:55:35;18.07;;;16.37;;
48205;SDS011;33995;48.202;16.260;2023-05-21T02:58:04;17.27;;;15.57;;
48205;SDS011;33995;48.202;16.260;2023-05-21T03:00:34;17.17;;;15.67;;
48205;SDS011;33995;48.202;16.260;2023-05-21T03:03:06;18.20;;;16.40;;
48205;SDS011;33995;48.202;16.260;2023-05-21T03:05:37;17.50;;;15.70;;
48205;SDS011;33995;48.202;16.260;2023-05-21T03:08:08;17.77;;;16.00;;
48205;SDS011;33995;48.202;16.260;2023-05-21T03:10:39;17.43;;;15.77;;
48205;SDS011;33995;48.202;16.260;2023-05-21T03:13:09;17.87;;;16.13;;
48205;SDS011;33995;48.202;16.260;2023-05-21T03:15:41;17.53;;;15.90;;
48205;SDS011;33995;48.202;16.260;2023-05-21T03:18:13;17.90;;;16.10;;
48205;SDS011;33995;48.202;16.260;2023-05-21T03:20:43;17.80;;;16.10;;
48205;SDS011;33995;48.202;16.260;2023-05-21T03:23:14;17.80;;;16.10;;
48205;SDS011;33995;48.202;16.260;2023-05-21T03:25:44;16.40;;;14.90;;
48205;SDS011;33995;48.202;16.260;2023-05-21T03:28:15;19.03;;;17.07;;
48205;SDS011;33995;48.202;16.260;2023-05-21T03:30:50;17.83;;;16.00;;
48205;SDS011;33995;48.202;16.260;2023-05-21T03:33:34;16.53;;;14.93;;
48205;SDS011;33995;48.202;16.260;2023-05-21T03:36:35;19.03;;;17.13;;
48205;SDS011;33995;48.202;16.260;2023-05-21T03:39:06;19.27;;;17.50;;
48205;SDS011;33995;48.202;16.260;2023-05-21T03:41:36;18.27;;;16.37;;
48205;SDS011;33995;48.202;16.260;2023-05-21T03:44:25;18.47;;;16.77;;
48205;SDS011;33995;48.202;16.260;2023-05-21T03:47:05;19.67;;;17.88;;
48205;SDS011;33995;48.202;16.260;2023-05-21T03:49:36;18.73;;;16.93;;
48205;SDS011;33995;48.202;16.260;2023-05-21T03:52:07;17.80;;;16.10;;
48205;SDS011;33995;48.202;16.260;2023-05-21T03:54:38;18.90;;;17.10;;
48205;SDS011;33995;48.202;16.260;2023-05-21T03:57:10;17.17;;;15.57;;
48205;SDS011;33995;48.202;16.260;2023-05-21T03:59:39;17.23;;;15.53;;
48205;SDS011;33995;48.202;16.260;2023-05-21T04:02:11;17.77;;;16.13;;
48205;SDS011;33995;48.202;16.260;2023-05-21T04:04:47;17.87;;;16.17;;
48205;SDS011;33995;48.202;16.260;2023-05-21T04:07:19;17.53;;;15.83;;
48205;SDS011;33995;48.202;16.260;2023-05-21T04:09:51;17.40;;;15.67;;
48205;SDS011;33995;48.202;16.260;2023-05-21T04:12:21;17.13;;;15.43;;
48205;SDS011;33995;48.202;16.260;2023-05-21T04:14:51;17.23;;;15.63;;
48205;SDS011;33995;48.202;16.260;2023-05-21T04:17:24;17.80;;;15.90;;
48205;SDS011;33995;48.202;16.260;2023-05-21T04:19:56;17.77;;;15.93;;
48205;SDS011;33995;48.202;16.260;2023-05-21T04:22:24;18.27;;;16.53;;
48205;SDS011;33995;48.202;16.260;2023-05-21T04:24:55;17.80;;;16.10;;
48205;SDS011;33995;48.202;16.260;2023-05-21T04:27:32;18.47;;;16.67;;
48205;SDS011;33995;48.202;16.260;2023-05-21T04:30:02;18.20;;;16.30;;
48205;SDS011;33995;48.202;16.260;2023-05-21T04:32:38;18.13;;;16.33;;
48205;SDS011;33995;48.202;16.260;2023-05-21T04:35:09;18.10;;;16.30;;
48205;SDS011;33995;48.202;16.260;2023-05-21T04:37:40;18.07;;;16.37;;
48205;SDS011;33995;48.202;16.260;2023-05-21T04:40:14;17.80;;;15.93;;
48205;SDS011;33995;48.202;16.260;2023-05-21T04:42:55;18.50;;;16.70;;
48205;SDS011;33995;48.202;16.260;2023-05-21T04:45:29;18.10;;;16.20;;
48205;SDS011;33995;48.202;16.260;2023-05-21T04:48:03;17.50;;;15.93;;
48205;SDS011;33995;48.202;16.260;2023-05-21T04:50:35;18.10;;;16.40;;
48205;SDS011;33995;48.202;16.260;2023-05-21T04:53:07;17.87;;;16.17;;
48205;SDS011;33995;48.202;16.260;2023-05-21T04:55:39;18.13;;;16.23;;
48205;SDS011;33995;48.202;16.260;2023-05-21T04:58:10;18.63;;;16.63;;
48205;SDS011;33995;48.202;16.260;2023-05-21T05:00:45;18.63;;;16.83;;
48205;SDS011;33995;48.202;16.260;2023-05-21T05:03:23;18.10;;;16.33;;
48205;SDS011;33995;48.202;16.260;2023-05-21T05:05:55;17.50;;;15.80;;
48205;SDS011;33995;48.202;16.260;2023-05-21T05:08:27;17.93;;;16.33;;
48205;SDS011;33995;48.202;16.260;2023-05-21T05:11:00;17.73;;;16.03;;
48205;SDS011;33995;48.202;16.260;2023-05-21T05:13:29;17.30;;;15.53;;
48205;SDS011;33995;48.202;16.260;2023-05-21T05:16:00;18.47;;;16.77;;
48205;SDS011;33995;48.202;16.260;2023-05-21T05:18:31;18.47;;;16.77;;
48205;SDS011;33995;48.202;16.260;2023-05-21T05:21:09;17.27;;;15.67;;
48205;SDS011;33995;48.202;16.260;2023-05-21T05:23:37;17.47;;;15.87;;
48205;SDS011;33995;48.202;16.260;2023-05-21T05:26:09;17.50;;;15.80;;
48205;SDS011;33995;48.202;16.260;2023-05-21T05:28:41;18.37;;;16.50;;
48205;SDS011;33995;48.202;16.260;2023-05-21T05:31:13;17.07;;;15.37;;
48205;SDS011;33995;48.202;16.260;2023-05-21T05:33:44;17.33;;;15.73;;
48205;SDS011;33995;48.202;16.260;2023-05-21T05:36:14;17.23;;;15.63;;
48205;SDS011;33995;48.202;16.260;2023-05-21T05:38:46;17.73;;;16.13;;
48205;SDS011;33995;48.202;16.260;2023-05-21T05:41:18;16.23;;;14.70;;
48205;SDS011;33995;48.202;16.260;2023-05-21T05:43:49;15.63;;;14.13;;
48205;SDS011;33995;48.202;16.260;2023-05-21T05:46:21;16.70;;;15.03;;
48205;SDS011;33995;48.202;16.260;2023-05-21T05:48:52;15.70;;;14.20;;
48205;SDS011;33995;48.202;16.260;2023-05-21T05:51:24;14.53;;;13.23;;
48205;SDS011;33995;48.202;16.260;2023-05-21T05:53:52;15.60;;;14.20;;
48205;SDS011;33995;48.202;16.260;2023-05-21T05:56:24;15.40;;;14.00;;
48205;SDS011;33995;48.202;16.260;2023-05-21T05:58:57;16.33;;;14.73;;
48205;SDS011;33995;48.202;16.260;2023-05-21T06:01:35;16.30;;;14.70;;
48205;SDS011;33995;48.202;16.260;2023-05-21T06:04:06;16.63;;;15.03;;
48205;SDS011;33995;48.202;16.260;2023-05-21T06:06:35;16.20;;;14.63;;
48205;SDS011;33995;48.202;16.260;2023-05-21T06:09:08;16.33;;;14.70;;
48205;SDS011;33995;48.202;16.260;2023-05-21T06:11:41;15.00;;;13.70;;
48205;SDS011;33995;48.202;16.260;2023-05-21T06:14:11;14.80;;;13.30;;
48205;SDS011;33995;48.202;16.260;2023-05-21T06:16:42;15.23;;;13.73;;
48205;SDS011;33995;48.202;16.260;2023-05-21T06:19:14;14.10;;;12.70;;
48205;SDS011;33995;48.202;16.260;2023-05-21T06:21:45;14.87;;;13.57;;
48205;SDS011;33995;48.202;16.260;2023-05-21T06:24:18;13.97;;;12.57;;
48205;SDS011;33995;48.202;16.260;2023-05-21T06:26:50;14.07;;;12.77;;
48205;SDS011;33995;48.202;16.260;2023-05-21T06:29:20;14.10;;;12.63;;
48205;SDS011;33995;48.202;16.260;2023-05-21T06:31:51;14.57;;;13.13;;
48205;SDS011;33995;48.202;16.260;2023-05-21T06:34:23;13.80;;;12.50;;
48205;SDS011;33995;48.202;16.260;2023-05-21T06:36:55;13.37;;;12.20;;
48205;SDS011;33995;48.202;16.260;2023-05-21T06:39:28;13.33;;;12.17;;
48205;SDS011;33995;48.202;16.260;2023-05-21T06:42:04;15.33;;;13.83;;
48205;SDS011;33995;48.202;16.260;2023-05-21T06:44:55;14.07;;;12.70;;
48205;SDS011;33995;48.202;16.260;2023-05-21T06:47:30;14.30;;;12.90;;
48205;SDS011;33995;48.202;16.260;2023-05-21T06:50:02;13.50;;;12.20;;
48205;SDS011;33995;48.202;16.260;2023-05-21T06:52:32;14.10;;;12.70;;
48205;SDS011;33995;48.202;16.260;2023-05-21T06:55:02;14.90;;;13.47;;
48205;SDS011;33995;48.202;16.260;2023-05-21T06:57:56;13.50;;;12.30;;
48205;SDS011;33995;48.202;16.260;2023-05-21T07:00:30;14.00;;;12.70;;
48205;SDS011;33995;48.202;16.260;2023-05-21T07:03:03;14.00;;;12.70;;
48205;SDS011;33995;48.202;16.260;2023-05-21T07:05:35;12.83;;;11.63;;
48205;SDS011;33995;48.202;16.260;2023-05-21T07:08:06;11.63;;;10.63;;
48205;SDS011;33995;48.202;16.260;2023-05-21T07:10:39;11.90;;;10.70;;
48205;SDS011;33995;48.202;16.260;2023-05-21T07:13:11;12.90;;;11.70;;
48205;SDS011;33995;48.202;16.260;2023-05-21T07:15:44;11.50;;;10.50;;
48205;SDS011;33995;48.202;16.260;2023-05-21T07:18:17;11.93;;;10.83;;
48205;SDS011;33995;48.202;16.260;2023-05-21T07:20:48;11.50;;;10.50;;
48205;SDS011;33995;48.202;16.260;2023-05-21T07:23:18;12.27;;;11.23;;
48205;SDS011;33995;48.202;16.260;2023-05-21T07:25:47;13.50;;;11.30;;
48205;SDS011;33995;48.202;16.260;2023-05-21T07:28:19;12.17;;;11.07;;
48205;SDS011;33995;48.202;16.260;2023-05-21T07:30:51;12.00;;;10.80;;
48205;SDS011;33995;48.202;16.260;2023-05-21T07:33:30;12.67;;;11.57;;
48205;SDS011;33995;48.202;16.260;2023-05-21T07:36:00;12.17;;;11.07;;
48205;SDS011;33995;48.202;16.260;2023-05-21T07:38:29;12.73;;;11.53;;
48205;SDS011;33995;48.202;16.260;2023-05-21T07:41:02;12.23;;;11.13;;
48205;SDS011;33995;48.202;16.260;2023-05-21T07:43:30;11.63;;;10.53;;
48205;SDS011;33995;48.202;16.260;2023-05-21T07:46:00;11.13;;;10.13;;
48205;SDS011;33995;48.202;16.260;2023-05-21T07:48:30;12.27;;;11.17;;
48205;SDS011;33995;48.202;16.260;2023-05-21T07:51:05;11.37;;;10.47;;
48205;SDS011;33995;48.202;16.260;2023-05-21T07:53:36;13.07;;;11.87;;
48205;SDS011;33995;48.202;16.260;2023-05-21T07:56:07;13.27;;;11.97;;
48205;SDS011;33995;48.202;16.260;2023-05-21T07:58:38;12.53;;;11.27;;
48205;SDS011;33995;48.202;16.260;2023-05-21T08:01:10;12.60;;;11.40;;
48205;SDS011;33995;48.202;16.260;2023-05-21T08:03:42;12.20;;;11.20;;
48205;SDS011;33995;48.202;16.260;2023-05-21T08:06:14;12.43;;;11.23;;
48205;SDS011;33995;48.202;16.260;2023-05-21T08:08:44;12.77;;;10.90;;
48205;SDS011;33995;48.202;16.260;2023-05-21T08:11:15;12.33;;;11.13;;
48205;SDS011;33995;48.202;16.260;2023-05-21T08:13:46;12.10;;;10.90;;
48205;SDS011;33995;48.202;16.260;2023-05-21T08:16:18;12.83;;;11.63;;
48205;SDS011;33995;48.202;16.260;2023-05-21T08:18:50;12.73;;;11.17;;
48205;SDS011;33995;48.202;16.260;2023-05-21T08:21:21;12.47;;;11.23;;
48205;SDS011;33995;48.202;16.260;2023-05-21T08:23:53;11.70;;;10.70;;
48205;SDS011;33995;48.202;16.260;2023-05-21T08:26:24;12.23;;;11.03;;
48205;SDS011;33995;48.202;16.260;2023-05-21T08:28:59;11.20;;;10.17;;
48205;SDS011;33995;48.202;16.260;2023-05-21T08:31:27;10.80;;;9.80;;
48205;SDS011;33995;48.202;16.260;2023-05-21T08:33:59;12.33;;;11.13;;
48205;SDS011;33995;48.202;16.260;2023-05-21T08:36:43;11.43;;;10.43;;
48205;SDS011;33995;48.202;16.260;2023-05-21T08:39:36;12.10;;;11.00;;
48205;SDS011;33995;48.202;16.260;2023-05-21T08:42:23;12.23;;;11.10;;
48205;SDS011;33995;48.202;16.260;2023-05-21T08:45:04;12.27;;;11.07;;
48205;SDS011;33995;48.202;16.260;2023-05-21T08:47:35;11.60;;;10.50;;
48205;SDS011;33995;48.202;16.260;2023-05-21T08:50:10;12.47;;;11.20;;
48205;SDS011;33995;48.202;16.260;2023-05-21T08:52:44;11.37;;;10.37;;
48205;SDS011;33995;48.202;16.260;2023-05-21T08:55:17;11.47;;;10.33;;
48205;SDS011;33995;48.202;16.260;2023-05-21T08:57:50;11.77;;;10.77;;
48205;SDS011;33995;48.202;16.260;2023-05-21T09:00:24;11.50;;;10.30;;
48205;SDS011;33995;48.202;16.260;2023-05-21T09:02:57;11.90;;;10.53;;
48205;SDS011;33995;48.202;16.260;2023-05-21T09:05:33;11.57;;;10.47;;
48205;SDS011;33995;48.202;16.260;2023-05-21T09:08:10;11.20;;;10.10;;
48205;SDS011;33995;48.202;16.260;2023-05-21T09:10:57;11.00;;;10.07;;
48205;SDS011;33995;48.202;16.260;2023-05-21T09:13:39;10.70;;;9.80;;
48205;SDS011;33995;48.202;16.260;2023-05-21T09:16:16;11.03;;;10.03;;
48205;SDS011;33995;48.202;16.260;2023-05-21T09:18:44;11.57;;;10.23;;
48205;SDS011;33995;48.202;16.260;2023-05-21T09:21:26;10.97;;;9.87;;
48205;SDS011;33995;48.202;16.260;2023-05-21T09:24:10;9.70;;;8.80;;
48205;SDS011;33995;48.202;16.260;2023-05-21T09:26:44;9.63;;;8.83;;
48205;SDS011;33995;48.202;16.260;2023-05-21T09:29:16;9.73;;;8.87;;
48205;SDS011;33995;48.202;16.260;2023-05-21T09:31:47;10.60;;;9.60;;
48205;SDS011;33995;48.202;16.260;2023-05-21T09:34:18;9.53;;;8.70;;
48205;SDS011;33995;48.202;16.260;2023-05-21T09:36:48;9.57;;;8.77;;
48205;SDS011;33995;48.202;16.260;2023-05-21T09:39:30;10.47;;;9.47;;
48205;SDS011;33995;48.202;16.260;2023-05-21T09:42:04;9.83;;;8.73;;
48205;SDS011;33995;48.202;16.260;2023-05-21T09:44:44;9.20;;;8.30;;
48205;SDS011;33995;48.202;16.260;2023-05-21T09:47:18;8.90;;;8.10;;
48205;SDS011;33995;48.202;16.260;2023-05-21T09:49:45;9.37;;;8.57;;
48205;SDS011;33995;48.202;16.260;2023-05-21T09:52:21;8.80;;;8.00;;
48205;SDS011;33995;48.202;16.260;2023-05-21T09:54:56;9.17;;;8.30;;
48205;SDS011;33995;48.202;16.260;2023-05-21T09:57:24;9.03;;;8.20;;
48205;SDS011;33995;48.202;16.260;2023-05-21T09:59:55;9.67;;;8.77;;
48205;SDS011;33995;48.202;16.260;2023-05-21T10:02:23;9.27;;;8.47;;
48205;SDS011;33995;48.202;16.260;2023-05-21T10:04:56;9.17;;;7.63;;
48205;SDS011;33995;48.202;16.260;2023-05-21T10:07:32;8.73;;;7.77;;
48205;SDS011;33995;48.202;16.260;2023-05-21T10:10:03;8.70;;;7.90;;
48205;SDS011;33995;48.202;16.260;2023-05-21T10:12:44;8.40;;;7.70;;
48205;SDS011;33995;48.202;16.260;2023-05-21T10:15:21;8.47;;;7.67;;
48205;SDS011;33995;48.202;16.260;2023-05-21T10:17:56;9.40;;;8.50;;
48205;SDS011;33995;48.202;16.260;2023-05-21T10:20:25;9.23;;;7.70;;
48205;SDS011;33995;48.202;16.260;2023-05-21T10:22:55;9.63;;;7.80;;
48205;SDS011;33995;48.202;16.260;2023-05-21T10:25:27;8.70;;;7.90;;
48205;SDS011;33995;48.202;16.260;2023-05-21T10:27:59;9.47;;;7.77;;
48205;SDS011;33995;48.202;16.260;2023-05-21T10:30:28;7.97;;;7.33;;
48205;SDS011;33995;48.202;16.260;2023-05-21T10:33:00;9.20;;;8.30;;
48205;SDS011;33995;48.202;16.260;2023-05-21T10:35:32;10.80;;;9.70;;
48205;SDS011;33995;48.202;16.260;2023-05-21T10:38:07;14.43;;;12.63;;
48205;SDS011;33995;48.202;16.260;2023-05-21T10:40:38;13.50;;;11.57;;
48205;SDS011;33995;48.202;16.260;2023-05-21T10:46:54;9.33;;;8.37;;
48205;SDS011;33995;48.202;16.260;2023-05-21T10:50:01;8.50;;;7.80;;
48205;SDS011;33995;48.202;16.260;2023-05-21T11:02:05;8.63;;;7.73;;
48205;SDS011;33995;48.202;16.260;2023-05-21T11:04:38;9.03;;;7.77;;
48205;SDS011;33995;48.202;16.260;2023-05-21T11:07:11;8.03;;;7.33;;
48205;SDS011;33995;48.202;16.260;2023-05-21T11:09:42;8.37;;;7.60;;
48205;SDS011;33995;48.202;16.260;2023-05-21T11:12:12;8.30;;;7.50;;
48205;SDS011;33995;48.202;16.260;2023-05-21T11:14:56;8.63;;;6.63;;
48205;SDS011;33995;48.202;16.260;2023-05-21T11:17:41;7.50;;;6.90;;
48205;SDS011;33995;48.202;16.260;2023-05-21T11:20:11;7.67;;;6.87;;
48205;SDS011;33995;48.202;16.260;2023-05-21T11:22:45;8.03;;;7.33;;
48205;SDS011;33995;48.202;16.260;2023-05-21T11:25:16;8.53;;;7.60;;
48205;SDS011;33995;48.202;16.260;2023-05-21T11:27:48;7.87;;;7.10;;
48205;SDS011;33995;48.202;16.260;2023-05-21T11:30:20;8.53;;;7.70;;
48205;SDS011;33995;48.202;16.260;2023-05-21T11:38:20;8.07;;;7.27;;
48205;SDS011;33995;48.202;16.260;2023-05-21T11:40:59;8.33;;;7.60;;
48205;SDS011;33995;48.202;16.260;2023-05-21T11:43:33;8.30;;;7.60;;
48205;SDS011;33995;48.202;16.260;2023-05-21T11:46:09;8.13;;;7.43;;
48205;SDS011;33995;48.202;16.260;2023-05-21T11:48:39;8.20;;;7.40;;
48205;SDS011;33995;48.202;16.260;2023-05-21T11:51:13;8.30;;;7.50;;
48205;SDS011;33995;48.202;16.260;2023-05-21T11:53:42;8.53;;;7.77;;
48205;SDS011;33995;48.202;16.260;2023-05-21T11:56:11;8.07;;;7.37;;
48205;SDS011;33995;48.202;16.260;2023-05-21T11:58:48;8.10;;;7.33;;
48205;SDS011;33995;48.202;16.260;2023-05-21T12:01:21;8.37;;;7.67;;
48205;SDS011;33995;48.202;16.260;2023-05-21T12:03:49;9.37;;;7.87;;
48205;SDS011;33995;48.202;16.260;2023-05-21T12:06:16;8.17;;;7.17;;
48205;SDS011;33995;48.202;16.260;2023-05-21T12:08:54;8.20;;;7.40;;
48205;SDS011;33995;48.202;16.260;2023-05-21T12:11:29;8.27;;;7.50;;
48205;SDS011;33995;48.202;16.260;2023-05-21T12:14:00;8.13;;;7.37;;
48205;SDS011;33995;48.202;16.260;2023-05-21T12:16:31;7.90;;;6.90;;
48205;SDS011;33995;48.202;16.260;2023-05-21T12:19:01;7.50;;;6.90;;
48205;SDS011;33995;48.202;16.260;2023-05-21T12:21:35;8.30;;;7.60;;
48205;SDS011;33995;48.202;16.260;2023-05-21T12:24:06;7.63;;;6.93;;
48205;SDS011;33995;48.202;16.260;2023-05-21T12:26:37;7.77;;;6.97;;
48205;SDS011;33995;48.202;16.260;2023-05-21T12:29:08;7.13;;;6.50;;
48205;SDS011;33995;48.202;16.260;2023-05-21T12:31:48;8.33;;;7.40;;
48205;SDS011;33995;48.202;16.260;2023-05-21T12:37:28;7.73;;;7.10;;
48205;SDS011;33995;48.202;16.260;2023-05-21T12:40:02;7.80;;;7.00;;
48205;SDS011;33995;48.202;16.260;2023-05-21T12:42:41;7.60;;;6.90;;
48205;SDS011;33995;48.202;16.260;2023-05-21T12:45:14;8.00;;;7.30;;
48205;SDS011;33995;48.202;16.260;2023-05-21T12:47:47;8.53;;;7.17;;
48205;SDS011;33995;48.202;16.260;2023-05-21T12:50:25;7.90;;;7.10;;
48205;SDS011;33995;48.202;16.260;2023-05-21T12:52:57;8.53;;;6.77;;
48205;SDS011;33995;48.202;16.260;2023-05-21T12:55:26;8.20;;;7.40;;
48205;SDS011;33995;48.202;16.260;2023-05-21T12:58:02;7.90;;;7.10;;
48205;SDS011;33995;48.202;16.260;2023-05-21T13:00:44;9.73;;;7.47;;
48205;SDS011;33995;48.202;16.260;2023-05-21T13:03:12;7.73;;;7.10;;
48205;SDS011;33995;48.202;16.260;2023-05-21T13:05:42;7.70;;;6.97;;
48205;SDS011;33995;48.202;16.260;2023-05-21T13:08:15;7.43;;;6.83;;
48205;SDS011;33995;48.202;16.260;2023-05-21T13:10:45;7.90;;;7.20;;
48205;SDS011;33995;48.202;16.260;2023-05-21T13:13:14;7.60;;;6.77;;
48205;SDS011;33995;48.202;16.260;2023-05-21T13:15:41;7.63;;;7.00;;
48205;SDS011;33995;48.202;16.260;2023-05-21T13:18:11;7.43;;;6.73;;
48205;SDS011;33995;48.202;16.260;2023-05-21T13:20:39;6.67;;;6.17;;
48205;SDS011;33995;48.202;16.260;2023-05-21T13:23:11;7.13;;;6.50;;
48205;SDS011;33995;48.202;16.260;2023-05-21T13:25:40;7.07;;;6.47;;
48205;SDS011;33995;48.202;16.260;2023-05-21T13:28:10;7.50;;;6.80;;
48205;SDS011;33995;48.202;16.260;2023-05-21T13:30:44;7.37;;;6.67;;
48205;SDS011;33995;48.202;16.260;2023-05-21T13:33:14;7.60;;;6.90;;
48205;SDS011;33995;48.202;16.260;2023-05-21T13:35:42;6.97;;;6.30;;
48205;SDS011;33995;48.202;16.260;2023-05-21T13:38:19;7.40;;;6.80;;
48205;SDS011;33995;48.202;16.260;2023-05-21T13:40:48;7.67;;;6.90;;
48205;SDS011;33995;48.202;16.260;2023-05-21T13:43:18;7.60;;;6.80;;
48205;SDS011;33995;48.202;16.260;2023-05-21T13:45:50;11.13;;;10.03;;
48205;SDS011;33995;48.202;16.260;2023-05-21T13:48:22;8.77;;;7.97;;
48205;SDS011;33995;48.202;16.260;2023-05-21T13:50:57;7.73;;;7.03;;
48205;SDS011;33995;48.202;16.260;2023-05-21T13:53:30;7.33;;;6.63;;
48205;SDS011;33995;48.202;16.260;2023-05-21T13:55:59;7.03;;;6.33;;
48205;SDS011;33995;48.202;16.260;2023-05-21T13:58:30;7.57;;;6.97;;
48205;SDS011;33995;48.202;16.260;2023-05-21T14:01:05;7.73;;;7.03;;
48205;SDS011;33995;48.202;16.260;2023-05-21T14:03:36;7.43;;;6.77;;
48205;SDS011;33995;48.202;16.260;2023-05-21T14:06:08;8.07;;;7.10;;
48205;SDS011;33995;48.202;16.260;2023-05-21T14:08:45;7.90;;;7.10;;
48205;SDS011;33995;48.202;16.260;2023-05-21T14:11:16;6.90;;;6.33;;
48205;SDS011;33995;48.202;16.260;2023-05-21T14:13:43;6.77;;;6.20;;
48205;SDS011;33995;48.202;16.260;2023-05-21T14:16:16;7.40;;;6.63;;
48205;SDS011;33995;48.202;16.260;2023-05-21T14:18:54;8.57;;;6.60;;
48205;SDS011;33995;48.202;16.260;2023-05-21T14:21:26;7.00;;;6.30;;
48205;SDS011;33995;48.202;16.260;2023-05-21T14:23:58;6.50;;;5.90;;
48205;SDS011;33995;48.202;16.260;2023-05-21T14:26:31;6.37;;;5.77;;
48205;SDS011;33995;48.202;16.260;2023-05-21T14:29:02;6.83;;;6.20;;
48205;SDS011;33995;48.202;16.260;2023-05-21T14:31:35;6.20;;;5.60;;
48205;SDS011;33995;48.202;16.260;2023-05-21T14:34:04;6.70;;;6.10;;
48205;SDS011;33995;48.202;16.260;2023-05-21T14:36:36;6.80;;;6.10;;
48205;SDS011;33995;48.202;16.260;2023-05-21T14:39:07;8.40;;;6.20;;
48205;SDS011;33995;48.202;16.260;2023-05-21T14:41:40;7.07;;;6.33;;
48205;SDS011;33995;48.202;16.260;2023-05-21T14:44:09;6.57;;;5.90;;
48205;SDS011;33995;48.202;16.260;2023-05-21T14:46:38;6.90;;;6.20;;
48205;SDS011;33995;48.202;16.260;2023-05-21T14:49:10;6.73;;;6.13;;
48205;SDS011;33995;48.202;16.260;2023-05-21T14:51:49;7.43;;;6.00;;
48205;SDS011;33995;48.202;16.260;2023-05-21T14:54:31;6.87;;;6.27;;
48205;SDS011;33995;48.202;16.260;2023-05-21T14:57:01;6.93;;;6.20;;
48205;SDS011;33995;48.202;16.260;2023-05-21T14:59:33;6.27;;;5.77;;
48205;SDS011;33995;48.202;16.260;2023-05-21T15:02:02;7.93;;;6.47;;
48205;SDS011;33995;48.202;16.260;2023-05-21T15:04:42;7.30;;;6.60;;
48205;SDS011;33995;48.202;16.260;2023-05-21T15:07:18;6.70;;;6.03;;
48205;SDS011;33995;48.202;16.260;2023-05-21T15:09:50;6.90;;;6.30;;
48205;SDS011;33995;48.202;16.260;2023-05-21T15:12:21;6.60;;;6.00;;
48205;SDS011;33995;48.202;16.260;2023-05-21T15:14:52;6.07;;;5.57;;
48205;SDS011;33995;48.202;16.260;2023-05-21T15:17:23;6.80;;;6.10;;
48205;SDS011;33995;48.202;16.260;2023-05-21T15:19:54;6.90;;;6.20;;